createdAt,value
2022-11-12T00:00:16.212Z,168.30
2022-11-12T00:01:37.077Z,165.57
2022-11-12T00:02:58.154Z,142.73
2022-11-12T00:04:19.021Z,260.73
2022-11-12T00:05:40.061Z,272.17
2022-11-12T00:07:00.912Z,145.85
2022-11-12T00:08:22.030Z,123.45
2022-11-12T00:09:42.924Z,90.75
2022-11-12T00:11:04.908Z,161.05
2022-11-12T00:12:25.780Z,153.05
2022-11-12T00:13:46.444Z,64.57
2022-11-12T00:15:07.731Z,181.05
2022-11-12T00:16:28.636Z,182.43
2022-11-12T00:17:49.214Z,137.82
2022-11-12T00:19:09.870Z,34.72
2022-11-12T00:20:30.901Z,66.40
2022-11-12T00:21:51.541Z,124.18
2022-11-12T00:23:12.182Z,116.85
2022-11-12T00:24:32.801Z,192.32
2022-11-12T00:26:01.038Z,208.10
2022-11-12T00:27:21.936Z,153.05
2022-11-12T00:28:42.828Z,96.57
2022-11-12T00:30:04.478Z,109.50
2022-11-12T00:31:25.229Z,149.60
2022-11-12T00:32:45.836Z,79.78
2022-11-12T00:34:06.808Z,53.40
2022-11-12T00:35:27.350Z,56.33
2022-11-12T00:36:48.286Z,136.48
2022-11-12T00:38:08.849Z,38.33
2022-11-12T00:39:30.071Z,40.58
2022-11-12T00:40:51.087Z,42.75
2022-11-12T00:42:12.038Z,40.67
2022-11-12T00:43:32.671Z,44.60
2022-11-12T00:44:53.359Z,31.67
2022-11-12T00:46:14.226Z,158.70
2022-11-12T00:47:34.928Z,209.63
2022-11-12T00:48:55.621Z,189.38
2022-11-12T00:50:16.759Z,328.92
2022-11-12T00:51:37.268Z,339.02
2022-11-12T00:52:57.947Z,305.55
2022-11-12T00:54:18.679Z,191.00
2022-11-12T00:55:39.308Z,210.43
2022-11-12T00:57:00.504Z,234.00
2022-11-12T00:58:21.221Z,154.57
2022-11-12T00:59:42.224Z,150.27
2022-11-12T01:01:12.256Z,140.68
2022-11-12T01:02:38.637Z,228.07
2022-11-12T01:04:03.807Z,181.38
2022-11-12T01:05:24.712Z,168.63
2022-11-12T01:06:45.301Z,209.82
2022-11-12T01:08:05.771Z,269.33
2022-11-12T01:09:26.551Z,155.00
2022-11-12T01:10:47.164Z,139.75
2022-11-12T01:12:08.199Z,213.55
2022-11-12T01:13:29.123Z,162.75
2022-11-12T01:14:49.700Z,160.52
2022-11-12T01:16:17.264Z,162.73
2022-11-12T01:17:38.143Z,153.00
2022-11-12T01:19:00.601Z,159.70
2022-11-12T01:20:21.801Z,115.28
2022-11-12T01:21:44.514Z,186.52
2022-11-12T01:23:06.748Z,207.82
2022-11-12T01:24:27.686Z,194.05
2022-11-12T01:25:48.316Z,196.43
2022-11-12T01:27:08.982Z,143.18
2022-11-12T01:28:29.910Z,89.88
2022-11-12T01:29:50.682Z,83.97
2022-11-12T01:31:12.902Z,125.15
2022-11-12T01:32:37.491Z,194.45
2022-11-12T01:34:00.861Z,257.02
2022-11-12T01:35:21.521Z,152.07
2022-11-12T01:36:43.478Z,162.95
2022-11-12T01:38:04.356Z,244.30
2022-11-12T01:39:25.486Z,363.23
2022-11-12T01:40:46.017Z,176.45
2022-11-12T01:42:06.833Z,247.77
2022-11-12T01:43:27.404Z,208.63
2022-11-12T01:44:48.241Z,420.85
2022-11-12T01:46:28.018Z,272.58
2022-11-12T01:47:52.110Z,377.35
2022-11-12T01:49:18.890Z,284.98
2022-11-12T01:50:40.813Z,274.10
2022-11-12T01:52:29.724Z,341.17
2022-11-12T01:53:56.499Z,260.00
2022-11-12T01:55:22.200Z,282.75
2022-11-12T01:56:43.407Z,333.73
2022-11-12T01:58:06.785Z,281.45
2022-11-12T01:59:34.281Z,192.25
2022-11-12T02:01:42.112Z,245.35
2022-11-12T02:03:08.093Z,216.82
2022-11-12T02:04:29.720Z,207.52
2022-11-12T02:05:59.630Z,219.65
2022-11-12T02:07:22.892Z,239.77
2022-11-12T02:08:44.756Z,320.88
2022-11-12T02:10:07.665Z,168.00
2022-11-12T02:11:28.357Z,186.20
2022-11-12T02:13:11.030Z,213.50
2022-11-12T02:14:32.344Z,166.80
2022-11-12T02:15:53.225Z,129.57
2022-11-12T02:17:14.023Z,230.73
2022-11-12T02:18:34.944Z,297.30
2022-11-12T02:19:58.980Z,270.13
2022-11-12T02:21:21.717Z,292.85
2022-11-12T02:22:42.593Z,240.05
2022-11-12T02:24:04.908Z,313.88
2022-11-12T02:25:27.013Z,260.75
2022-11-12T02:26:51.249Z,249.60
2022-11-12T02:28:12.764Z,310.33
2022-11-12T02:29:33.456Z,279.80
2022-11-12T02:30:54.072Z,206.57
2022-11-12T02:32:14.737Z,226.32
2022-11-12T02:33:35.463Z,203.90
2022-11-12T02:34:56.289Z,274.25
2022-11-12T02:36:17.100Z,169.65
2022-11-12T02:37:37.730Z,261.27
2022-11-12T02:38:58.752Z,41.50
2022-11-12T02:40:19.376Z,86.35
2022-11-12T02:41:39.798Z,230.93
2022-11-12T02:43:00.627Z,252.32
2022-11-12T02:44:21.224Z,236.57
2022-11-12T02:45:41.939Z,173.65
2022-11-12T02:47:02.474Z,62.75
2022-11-12T02:48:23.285Z,142.98
2022-11-12T02:49:44.616Z,244.93
2022-11-12T02:51:05.815Z,130.68
2022-11-12T02:52:26.428Z,155.02
2022-11-12T02:53:47.185Z,57.92
2022-11-12T02:55:09.919Z,77.68
2022-11-12T02:56:30.704Z,56.83
2022-11-12T02:57:51.540Z,120.72
2022-11-12T02:59:12.425Z,110.07
2022-11-12T03:00:33.262Z,135.25
2022-11-12T03:01:53.779Z,135.70
2022-11-12T03:03:14.403Z,192.18
2022-11-12T03:04:34.956Z,206.25
2022-11-12T03:06:01.000Z,245.02
2022-11-12T03:07:21.690Z,139.65
2022-11-12T03:08:42.168Z,129.75
2022-11-12T03:10:04.981Z,92.68
2022-11-12T03:11:25.860Z,106.85
2022-11-12T03:12:46.467Z,276.10
2022-11-12T03:14:07.064Z,239.52
2022-11-12T03:15:28.730Z,246.00
2022-11-12T03:16:49.701Z,279.25
2022-11-12T03:18:10.457Z,194.60
2022-11-12T03:19:31.125Z,133.15
2022-11-12T03:20:52.067Z,148.50
2022-11-12T03:22:12.877Z,204.32
2022-11-12T03:23:33.623Z,253.05
2022-11-12T03:24:54.197Z,213.32
2022-11-12T03:26:14.884Z,200.85
2022-11-12T03:27:36.137Z,255.30
2022-11-12T03:28:56.796Z,228.20
2022-11-12T03:30:17.802Z,214.38
2022-11-12T03:31:38.983Z,160.25
2022-11-12T03:33:00.138Z,200.13
2022-11-12T03:34:20.877Z,212.57
2022-11-12T03:35:41.917Z,215.48
2022-11-12T03:37:03.009Z,184.32
2022-11-12T03:38:24.213Z,219.20
2022-11-12T03:39:44.992Z,263.77
2022-11-12T03:41:05.912Z,187.70
2022-11-12T03:42:26.514Z,152.85
2022-11-12T03:43:47.478Z,195.90
2022-11-12T03:45:08.222Z,147.88
2022-11-12T03:46:28.804Z,145.82
2022-11-12T03:47:52.052Z,150.63
2022-11-12T03:49:12.916Z,179.15
2022-11-12T03:50:33.552Z,215.10
2022-11-12T03:51:54.388Z,187.00
2022-11-12T03:53:15.518Z,169.48
2022-11-12T03:54:36.429Z,142.60
2022-11-12T03:55:57.061Z,211.73
2022-11-12T03:57:18.194Z,180.82
2022-11-12T03:58:38.782Z,147.45
2022-11-12T03:59:59.211Z,118.45
2022-11-12T04:01:20.141Z,152.80
2022-11-12T04:02:40.898Z,199.85
2022-11-12T04:04:01.679Z,190.48
2022-11-12T04:05:41.237Z,180.00
2022-11-12T04:07:20.206Z,194.02
2022-11-12T04:08:41.176Z,192.73
2022-11-12T04:10:01.695Z,183.85
2022-11-12T04:11:22.391Z,155.73
2022-11-12T04:13:01.108Z,225.18
2022-11-12T04:14:22.304Z,111.63
2022-11-12T04:15:43.246Z,201.70
2022-11-12T04:17:22.128Z,250.27
2022-11-12T04:19:02.747Z,176.20
2022-11-12T04:20:42.469Z,124.18
2022-11-12T04:22:11.005Z,158.23
2022-11-12T04:23:31.749Z,125.40
2022-11-12T04:25:10.781Z,204.05
2022-11-12T04:26:31.651Z,186.70
2022-11-12T04:27:52.220Z,222.95
2022-11-12T04:29:36.381Z,186.52
2022-11-12T04:30:58.068Z,195.38
2022-11-12T04:32:19.892Z,176.75
2022-11-12T04:33:40.830Z,163.20
2022-11-12T04:35:02.588Z,105.68
2022-11-12T04:36:23.237Z,135.38
2022-11-12T04:37:46.992Z,147.07
2022-11-12T04:39:07.797Z,120.43
2022-11-12T04:40:46.785Z,74.15
2022-11-12T04:42:28.467Z,117.95
2022-11-12T04:44:07.767Z,126.25
2022-11-12T04:45:28.662Z,89.45
2022-11-12T04:46:49.317Z,95.38
2022-11-12T04:48:09.920Z,92.03
2022-11-12T04:49:30.811Z,68.25
2022-11-12T04:50:57.591Z,41.92
2022-11-12T04:52:18.839Z,83.95
2022-11-12T04:53:39.471Z,51.33
2022-11-12T04:55:00.347Z,55.33
2022-11-12T04:56:21.092Z,77.00
2022-11-12T04:57:41.886Z,71.65
2022-11-12T04:59:02.648Z,47.80
2022-11-12T05:00:23.272Z,52.38
2022-11-12T05:01:44.096Z,56.88
2022-11-12T05:03:04.612Z,79.47
2022-11-12T05:04:27.663Z,58.90
2022-11-12T05:05:48.664Z,38.22
2022-11-12T05:07:09.669Z,54.67
2022-11-12T05:08:30.401Z,39.97
2022-11-12T05:09:50.997Z,70.35
2022-11-12T05:11:13.081Z,69.63
2022-11-12T05:12:33.986Z,70.30
2022-11-12T05:13:54.667Z,79.68
2022-11-12T05:15:15.459Z,150.10
2022-11-12T05:16:36.940Z,107.63
2022-11-12T05:17:58.025Z,97.93
2022-11-12T05:19:19.449Z,80.30
2022-11-12T05:20:40.168Z,94.50
2022-11-12T05:22:08.811Z,84.03
2022-11-12T05:23:32.054Z,106.15
2022-11-12T05:24:52.579Z,86.10
2022-11-12T05:26:13.048Z,122.55
2022-11-12T05:27:34.537Z,133.93
2022-11-12T05:28:55.266Z,98.38
2022-11-12T05:30:15.962Z,70.97
2022-11-12T05:31:36.678Z,83.68
2022-11-12T05:32:57.336Z,87.55
2022-11-12T05:34:22.743Z,86.68
2022-11-12T05:35:43.806Z,91.47
2022-11-12T05:37:06.419Z,88.63
2022-11-12T05:39:48.059Z,71.22
2022-11-12T05:41:08.742Z,87.18
2022-11-12T05:42:29.648Z,49.85
2022-11-12T05:43:50.284Z,64.25
2022-11-12T05:45:10.823Z,35.85
2022-11-12T05:46:31.301Z,85.20
2022-11-12T05:47:52.186Z,45.10
2022-11-12T05:49:13.239Z,69.70
2022-11-12T05:50:45.429Z,37.55
2022-11-12T05:52:14.827Z,29.85
2022-11-12T05:53:35.607Z,30.60
2022-11-12T05:54:56.313Z,19.40
2022-11-12T05:56:16.982Z,22.90
2022-11-12T05:57:37.543Z,25.80
2022-11-12T05:58:58.704Z,37.08
2022-11-12T06:00:19.779Z,22.73
2022-11-12T06:01:44.012Z,43.50
2022-11-12T06:03:05.857Z,34.80
2022-11-12T06:04:26.472Z,27.67
2022-11-12T06:05:47.238Z,54.35
2022-11-12T06:07:08.052Z,26.98
2022-11-12T06:08:29.253Z,43.17
2022-11-12T06:09:50.094Z,32.25
2022-11-12T06:11:10.818Z,28.02
2022-11-12T06:12:31.446Z,21.27
2022-11-12T06:13:52.071Z,17.08
2022-11-12T06:15:12.855Z,17.92
2022-11-12T06:16:33.691Z,23.20
2022-11-12T06:17:54.805Z,14.73
2022-11-12T06:19:15.469Z,23.30
2022-11-12T06:20:37.041Z,14.88
2022-11-12T06:21:57.880Z,81.65
2022-11-12T06:23:18.951Z,39.13
2022-11-12T06:24:39.983Z,18.20
2022-11-12T06:26:01.087Z,23.02
2022-11-12T06:27:23.908Z,10.98
2022-11-12T06:28:44.552Z,11.95
2022-11-12T06:30:06.625Z,12.63
2022-11-12T06:31:27.615Z,11.55
2022-11-12T06:32:49.635Z,10.90
2022-11-12T06:34:12.315Z,13.38
2022-11-12T06:35:33.476Z,10.15
2022-11-12T06:36:54.206Z,17.73
2022-11-12T06:38:15.457Z,24.25
2022-11-12T06:39:35.950Z,18.60
2022-11-12T06:40:57.344Z,34.75
2022-11-12T06:42:18.161Z,15.55
2022-11-12T06:43:42.556Z,18.83
2022-11-12T06:45:03.394Z,22.95
2022-11-12T06:46:24.220Z,23.42
2022-11-12T06:47:44.845Z,34.15
2022-11-12T06:49:05.545Z,28.88
2022-11-12T06:50:26.278Z,158.27
2022-11-12T06:51:46.971Z,160.63
2022-11-12T06:53:07.483Z,269.17
2022-11-12T06:54:28.098Z,163.05
2022-11-12T06:55:48.888Z,142.73
2022-11-12T06:57:09.880Z,244.45
2022-11-12T06:58:30.799Z,181.35
2022-11-12T06:59:51.339Z,100.78
2022-11-12T07:01:15.184Z,232.85
2022-11-12T07:02:37.243Z,113.93
2022-11-12T07:03:58.134Z,176.57
2022-11-12T07:05:18.735Z,201.88
2022-11-12T07:06:39.969Z,158.80
2022-11-12T07:08:00.514Z,210.88
2022-11-12T07:09:20.890Z,241.82
2022-11-12T07:10:41.530Z,588.95
2022-11-12T07:12:02.145Z,342.15
2022-11-12T07:13:23.146Z,332.70
2022-11-12T07:14:44.023Z,298.05
2022-11-12T07:16:06.915Z,258.45
2022-11-12T07:17:27.870Z,234.75
2022-11-12T07:18:49.933Z,192.98
2022-11-12T07:20:11.337Z,168.48
2022-11-12T07:21:32.279Z,179.32
2022-11-12T07:22:52.917Z,143.85
2022-11-12T07:24:13.942Z,167.95
2022-11-12T07:25:34.687Z,111.80
2022-11-12T07:26:55.323Z,214.98
2022-11-12T07:28:16.003Z,173.57
2022-11-12T07:29:47.635Z,142.65
2022-11-12T07:31:11.543Z,120.15
2022-11-12T07:32:32.131Z,207.55
2022-11-12T07:33:53.363Z,159.70
2022-11-12T07:35:14.114Z,184.82
2022-11-12T07:36:34.805Z,148.52
2022-11-12T07:37:59.438Z,105.22
2022-11-12T07:39:20.787Z,244.18
2022-11-12T07:40:41.465Z,268.02
2022-11-12T07:42:02.148Z,233.75
2022-11-12T07:43:22.725Z,121.07
2022-11-12T07:44:43.224Z,125.15
2022-11-12T07:46:10.602Z,120.10
2022-11-12T07:47:31.720Z,148.80
2022-11-12T07:48:54.155Z,119.43
2022-11-12T07:50:15.069Z,110.78
2022-11-12T07:51:35.883Z,127.15
2022-11-12T07:52:59.152Z,83.68
2022-11-12T07:54:19.701Z,83.25
2022-11-12T07:55:40.424Z,121.50
2022-11-12T07:57:01.370Z,130.27
2022-11-12T07:58:23.807Z,113.18
2022-11-12T07:59:46.273Z,98.95
2022-11-12T08:01:28.172Z,99.55
2022-11-12T08:02:48.834Z,129.10
2022-11-12T08:04:11.818Z,141.20
2022-11-12T08:05:34.544Z,103.95
2022-11-12T08:06:55.290Z,50.20
2022-11-12T08:08:16.619Z,47.35
2022-11-12T08:09:37.343Z,58.92
2022-11-12T08:10:58.806Z,45.17
2022-11-12T08:12:20.710Z,45.63
2022-11-12T08:13:42.221Z,41.38
2022-11-12T08:15:03.818Z,32.25
2022-11-12T08:16:24.776Z,25.20
2022-11-12T08:17:45.863Z,18.17
2022-11-12T08:19:06.729Z,19.63
2022-11-12T08:20:27.344Z,24.02
2022-11-12T08:21:48.221Z,24.92
2022-11-12T08:23:09.803Z,15.93
2022-11-12T08:24:30.618Z,23.35
2022-11-12T08:25:51.211Z,22.92
2022-11-12T08:27:11.824Z,17.90
2022-11-12T08:28:34.408Z,17.38
2022-11-12T08:29:55.460Z,17.27
2022-11-12T08:31:21.070Z,15.05
2022-11-12T08:32:42.339Z,13.10
2022-11-12T08:34:12.426Z,11.50
2022-11-12T08:35:33.942Z,14.07
2022-11-12T08:36:57.683Z,12.70
2022-11-12T08:38:18.806Z,15.23
2022-11-12T08:39:39.489Z,13.63
2022-11-12T08:41:04.653Z,13.10
2022-11-12T08:42:25.556Z,11.90
2022-11-12T08:43:46.459Z,335.88
2022-11-12T08:45:07.710Z,50.38
2022-11-12T08:46:28.257Z,131.35
2022-11-12T08:47:48.896Z,27.40
2022-11-12T08:49:09.629Z,14.68
2022-11-12T08:50:30.795Z,15.85
2022-11-12T08:51:51.616Z,20.35
2022-11-12T08:53:13.603Z,17.80
2022-11-12T08:54:34.331Z,19.70
2022-11-12T08:55:56.082Z,30.58
2022-11-12T08:57:16.710Z,24.05
2022-11-12T08:58:37.242Z,27.60
2022-11-12T08:59:57.918Z,27.30
2022-11-12T09:01:18.605Z,12.43
2022-11-12T09:02:39.254Z,18.90
2022-11-12T09:04:00.169Z,17.65
2022-11-12T09:05:21.256Z,12.65
2022-11-12T09:06:42.039Z,8.60
2022-11-12T09:08:05.703Z,9.85
2022-11-12T09:09:26.446Z,10.70
2022-11-12T09:10:47.626Z,21.77
2022-11-12T09:12:15.149Z,14.00
2022-11-12T09:13:37.201Z,12.50
2022-11-12T09:15:09.554Z,17.30
2022-11-12T09:16:38.529Z,11.82
2022-11-12T09:18:01.002Z,20.17
2022-11-12T09:19:21.658Z,19.50
2022-11-12T09:20:42.826Z,9.85
2022-11-12T09:22:03.833Z,8.73
2022-11-12T09:23:24.375Z,7.25
2022-11-12T09:24:45.160Z,8.75
2022-11-12T09:26:06.206Z,8.55
2022-11-12T09:27:27.654Z,9.38
2022-11-12T09:28:48.506Z,12.38
2022-11-12T09:30:09.885Z,8.98
2022-11-12T09:31:30.785Z,12.10
2022-11-12T09:32:57.554Z,13.55
2022-11-12T09:34:18.568Z,10.48
2022-11-12T09:35:39.337Z,6.78
2022-11-12T09:36:59.871Z,10.45
2022-11-12T09:38:22.158Z,7.38
2022-11-12T09:39:42.990Z,9.63
2022-11-12T09:41:22.389Z,8.02
2022-11-12T09:42:46.914Z,13.10
2022-11-12T09:44:15.518Z,13.25
2022-11-12T09:45:36.970Z,11.00
2022-11-12T09:47:08.030Z,8.85
2022-11-12T09:48:45.925Z,9.45
2022-11-12T09:50:29.029Z,8.10
2022-11-12T09:52:01.152Z,10.63
2022-11-12T09:53:25.367Z,30.05
2022-11-12T09:54:52.112Z,10.75
2022-11-12T09:56:13.951Z,7.32
2022-11-12T09:57:35.079Z,9.02
2022-11-12T09:58:56.220Z,10.70
2022-11-12T10:00:21.159Z,9.80
2022-11-12T10:02:13.803Z,10.45
2022-11-12T10:04:00.622Z,14.10
2022-11-12T10:05:26.998Z,15.88
2022-11-12T10:07:24.738Z,14.80
2022-11-12T10:09:00.361Z,12.63
2022-11-12T10:10:47.886Z,10.85
2022-11-12T10:12:34.100Z,9.65
2022-11-12T10:14:16.851Z,12.25
2022-11-12T10:16:03.710Z,12.15
2022-11-12T10:17:39.636Z,14.60
2022-11-12T10:19:10.261Z,15.27
2022-11-12T10:20:56.277Z,10.70
2022-11-12T10:22:31.878Z,10.63
2022-11-12T10:23:53.331Z,13.55
2022-11-12T10:25:17.647Z,10.63
2022-11-12T10:26:40.026Z,13.00
2022-11-12T10:28:12.355Z,12.77
2022-11-12T10:30:02.243Z,11.27
2022-11-12T10:31:23.140Z,16.23
2022-11-12T10:32:46.105Z,11.85
2022-11-12T10:34:23.446Z,13.57
2022-11-12T10:35:44.143Z,10.88
2022-11-12T10:37:10.488Z,11.18
2022-11-12T10:38:33.860Z,12.98
2022-11-12T10:39:54.931Z,17.63
2022-11-12T10:41:28.009Z,15.07
2022-11-12T10:44:27.355Z,12.20
2022-11-12T10:45:50.233Z,18.88
2022-11-12T10:47:24.798Z,13.07
2022-11-12T10:48:56.279Z,17.15
2022-11-12T10:50:28.508Z,11.25
2022-11-12T10:51:59.678Z,14.95
2022-11-12T10:53:38.407Z,11.43
2022-11-12T10:55:15.935Z,11.95
2022-11-12T10:56:36.518Z,12.93
2022-11-12T10:58:09.152Z,13.38
2022-11-12T10:59:29.744Z,10.33
2022-11-12T11:00:59.676Z,14.30
2022-11-12T11:02:20.581Z,12.55
2022-11-12T11:03:58.155Z,15.18
2022-11-12T11:05:46.139Z,18.30
2022-11-12T11:07:20.597Z,10.20
2022-11-12T11:08:45.321Z,14.73
2022-11-12T11:10:14.904Z,15.05
2022-11-12T11:11:35.882Z,14.90
2022-11-12T11:13:20.192Z,12.98
2022-11-12T11:14:44.344Z,11.07
2022-11-12T11:16:09.131Z,11.98
2022-11-12T11:17:32.249Z,10.60
2022-11-12T11:18:59.410Z,15.60
2022-11-12T11:20:31.459Z,13.70
2022-11-12T11:21:58.352Z,17.05
2022-11-12T11:23:28.811Z,10.45
2022-11-12T11:25:00.730Z,13.50
2022-11-12T11:26:36.353Z,11.55
2022-11-12T11:28:33.381Z,13.13
2022-11-12T11:30:15.298Z,14.70
2022-11-12T11:31:55.418Z,12.07
2022-11-12T11:33:52.661Z,12.00
2022-11-12T11:35:37.746Z,11.15
2022-11-12T11:37:25.511Z,10.77
2022-11-12T11:38:54.817Z,12.65
2022-11-12T11:40:28.243Z,14.90
2022-11-12T11:43:45.682Z,11.60
2022-11-12T11:45:18.453Z,13.02
2022-11-12T11:47:16.583Z,12.40
2022-11-12T11:49:15.116Z,11.93
2022-11-12T11:50:42.511Z,13.82
2022-11-12T11:52:19.472Z,15.55
2022-11-12T11:53:53.602Z,17.40
2022-11-12T11:55:41.772Z,16.63
2022-11-12T11:57:10.738Z,15.52
2022-11-12T11:58:37.247Z,24.00
2022-11-12T12:00:16.282Z,19.73
2022-11-12T12:02:07.762Z,21.50
2022-11-12T12:03:37.203Z,27.85
2022-11-12T12:05:25.007Z,16.48
2022-11-12T12:07:13.990Z,24.17
2022-11-12T12:08:57.973Z,16.20
2022-11-12T12:10:30.325Z,26.42
2022-11-12T12:12:30.815Z,17.50
2022-11-12T12:14:22.153Z,48.53
2022-11-12T12:16:17.375Z,14.05
2022-11-12T12:17:59.402Z,14.80
2022-11-12T12:19:50.747Z,19.70
2022-11-12T12:21:16.185Z,16.75
2022-11-12T12:22:51.190Z,36.88
2022-11-12T12:24:26.522Z,21.77
2022-11-12T12:25:49.264Z,34.50
2022-11-12T12:27:14.518Z,36.85
2022-11-12T12:28:45.308Z,60.67
2022-11-12T12:30:18.777Z,20.42
2022-11-12T12:31:48.312Z,14.30
2022-11-12T12:33:33.572Z,15.40
2022-11-12T12:35:48.315Z,13.98
2022-11-12T12:37:30.793Z,22.67
2022-11-12T12:39:22.543Z,160.52
2022-11-12T12:41:18.580Z,105.50
2022-11-12T12:42:47.340Z,32.78
2022-11-12T12:44:09.956Z,131.45
2022-11-12T12:45:41.553Z,23.00
2022-11-12T12:47:03.071Z,24.10
2022-11-12T12:48:45.055Z,14.05
2022-11-12T12:50:12.615Z,17.30
2022-11-12T12:51:35.673Z,19.45
2022-11-12T12:53:16.986Z,15.40
2022-11-12T12:54:37.706Z,13.27
2022-11-12T12:56:19.790Z,13.32
2022-11-12T12:57:40.800Z,13.40
2022-11-12T12:59:08.057Z,24.80
2022-11-12T13:00:41.070Z,99.22
2022-11-12T13:02:03.543Z,25.48
2022-11-12T13:03:42.370Z,57.95
2022-11-12T13:05:03.317Z,19.40
2022-11-12T13:06:54.626Z,13.10
2022-11-12T13:08:26.509Z,16.95
2022-11-12T13:09:47.603Z,50.85
2022-11-12T13:11:08.923Z,55.13
2022-11-12T13:13:12.554Z,27.70
2022-11-12T13:14:39.054Z,21.70
2022-11-12T13:16:01.682Z,31.58
2022-11-12T13:17:45.878Z,30.40
2022-11-12T13:19:07.400Z,21.63
2022-11-12T13:20:35.353Z,26.65
2022-11-12T13:22:17.251Z,26.58
2022-11-12T13:24:07.630Z,17.77
2022-11-12T13:25:31.603Z,17.52
2022-11-12T13:26:55.977Z,17.88
2022-11-12T13:28:16.821Z,49.38
2022-11-12T13:29:37.462Z,22.48
2022-11-12T13:31:00.596Z,22.92
2022-11-12T13:32:41.884Z,112.65
2022-11-12T13:34:13.999Z,19.00
2022-11-12T13:35:36.404Z,20.17
2022-11-12T13:37:01.441Z,23.10
2022-11-12T13:38:22.468Z,24.90
2022-11-12T13:39:43.482Z,60.22
2022-11-12T13:41:17.156Z,17.63
2022-11-12T13:42:50.199Z,24.52
2022-11-12T13:44:15.699Z,43.53
2022-11-12T13:45:50.186Z,51.03
2022-11-12T13:47:18.354Z,17.40
2022-11-12T13:48:41.616Z,17.38
2022-11-12T13:50:02.263Z,40.67
2022-11-12T13:51:39.653Z,22.15
2022-11-12T13:53:00.895Z,16.23
2022-11-12T13:54:36.987Z,22.88
2022-11-12T13:55:57.734Z,33.22
2022-11-12T13:57:23.854Z,15.02
2022-11-12T13:58:44.810Z,14.05
2022-11-12T14:00:27.686Z,15.65
2022-11-12T14:01:49.547Z,14.98
2022-11-12T14:03:17.700Z,18.55
2022-11-12T14:04:39.709Z,14.55
2022-11-12T14:06:22.238Z,16.60
2022-11-12T14:07:48.535Z,15.63
2022-11-12T14:09:38.958Z,19.05
2022-11-12T14:11:24.350Z,20.10
2022-11-12T14:12:50.634Z,71.25
2022-11-12T14:14:29.689Z,74.28
2022-11-12T14:16:03.583Z,26.85
2022-11-12T14:17:35.820Z,17.08
2022-11-12T14:19:17.988Z,15.73
2022-11-12T14:20:40.537Z,15.55
2022-11-12T14:22:12.428Z,59.97
2022-11-12T14:23:37.977Z,20.83
2022-11-12T14:25:02.569Z,19.58
2022-11-12T14:26:35.567Z,17.98
2022-11-12T14:27:56.686Z,133.93
2022-11-12T14:29:18.745Z,27.48
2022-11-12T14:30:44.672Z,17.33
2022-11-12T14:32:09.007Z,21.20
2022-11-12T14:33:32.037Z,16.80
2022-11-12T14:34:52.567Z,18.30
2022-11-12T14:36:16.490Z,19.48
2022-11-12T14:37:43.361Z,17.50
2022-11-12T14:39:04.708Z,59.13
2022-11-12T14:40:28.318Z,127.38
2022-11-12T14:41:50.961Z,48.08
2022-11-12T14:43:27.968Z,36.17
2022-11-12T14:44:49.365Z,19.27
2022-11-12T14:46:26.927Z,17.08
2022-11-12T14:47:50.691Z,109.07
2022-11-12T14:49:44.304Z,25.45
2022-11-12T14:51:11.089Z,173.27
2022-11-12T14:52:38.065Z,60.33
2022-11-12T14:54:14.456Z,40.67
2022-11-12T14:55:37.372Z,24.73
2022-11-12T14:57:00.668Z,69.03
2022-11-12T14:58:22.755Z,35.05
2022-11-12T14:59:43.925Z,70.15
2022-11-12T15:03:13.967Z,15.07
2022-11-12T15:04:50.928Z,15.32
2022-11-12T15:06:11.778Z,35.13
2022-11-12T15:07:35.124Z,67.22
2022-11-12T15:08:58.426Z,18.50
2022-11-12T15:10:39.092Z,16.88
2022-11-12T15:12:00.109Z,30.38
2022-11-12T15:13:24.522Z,17.85
2022-11-12T15:14:45.185Z,18.40
2022-11-12T15:16:08.116Z,15.38
2022-11-12T15:17:33.489Z,15.93
2022-11-12T15:19:05.605Z,15.93
2022-11-12T15:20:27.036Z,16.33
2022-11-12T15:21:50.876Z,19.83
2022-11-12T15:23:21.135Z,17.08
2022-11-12T15:24:44.600Z,17.02
2022-11-12T15:26:14.215Z,18.10
2022-11-12T15:27:40.595Z,21.73
2022-11-12T15:29:12.618Z,18.05
2022-11-12T15:30:33.405Z,20.08
2022-11-12T15:32:13.880Z,18.63
2022-11-12T15:33:35.347Z,22.58
2022-11-12T15:34:56.816Z,20.35
2022-11-12T15:36:22.666Z,20.20
2022-11-12T15:37:44.057Z,18.77
2022-11-12T15:39:13.864Z,19.10
2022-11-12T15:40:43.250Z,34.25
2022-11-12T15:42:14.559Z,26.40
2022-11-12T15:43:36.715Z,31.27
2022-11-12T15:45:04.013Z,28.02
2022-11-12T15:46:25.334Z,38.75
2022-11-12T15:47:46.141Z,34.03
2022-11-12T15:49:12.723Z,23.33
2022-11-12T15:50:33.353Z,27.63
2022-11-12T15:51:54.023Z,26.10
2022-11-12T15:53:15.327Z,29.92
2022-11-12T15:54:40.852Z,21.67
2022-11-12T15:56:03.717Z,23.27
2022-11-12T15:57:28.961Z,24.67
2022-11-12T15:58:49.824Z,24.15
2022-11-12T16:00:16.780Z,25.83
2022-11-12T16:01:37.784Z,28.92
2022-11-12T16:03:19.837Z,20.50
2022-11-12T16:04:40.902Z,21.35
2022-11-12T16:06:07.126Z,20.50
2022-11-12T16:07:29.795Z,20.45
2022-11-12T16:08:50.785Z,28.02
2022-11-12T16:10:15.858Z,34.45
2022-11-12T16:11:36.867Z,30.40
2022-11-12T16:12:59.991Z,28.17
2022-11-12T16:14:24.788Z,27.42
2022-11-12T16:15:46.321Z,41.67
2022-11-12T16:17:13.109Z,43.17
2022-11-12T16:18:33.605Z,29.75
2022-11-12T16:19:54.435Z,33.55
2022-11-12T16:21:20.483Z,37.30
2022-11-12T16:22:41.752Z,30.27
2022-11-12T16:24:02.432Z,41.60
2022-11-12T16:25:25.023Z,28.55
2022-11-12T16:26:46.032Z,24.33
2022-11-12T16:28:16.561Z,24.58
2022-11-12T16:29:37.615Z,30.77
2022-11-12T16:30:58.212Z,51.50
2022-11-12T16:32:19.097Z,32.70
2022-11-12T16:33:39.834Z,66.07
2022-11-12T16:35:01.384Z,110.63
2022-11-12T16:36:22.440Z,138.60
2022-11-12T16:37:44.823Z,173.23
2022-11-12T16:39:06.234Z,52.45
2022-11-12T16:40:29.812Z,39.30
2022-11-12T16:41:50.769Z,32.28
2022-11-12T16:43:11.533Z,68.60
2022-11-12T16:44:32.859Z,71.45
2022-11-12T16:45:53.380Z,40.38
2022-11-12T16:47:14.570Z,42.50
2022-11-12T16:48:38.067Z,64.35
2022-11-12T16:49:58.861Z,45.70
2022-11-12T16:51:21.124Z,128.43
2022-11-12T16:52:42.739Z,51.65
2022-11-12T16:54:04.321Z,223.10
2022-11-12T16:55:25.242Z,268.70
2022-11-12T16:56:47.157Z,104.05
2022-11-12T16:58:13.374Z,60.25
2022-11-12T16:59:34.197Z,287.15
2022-11-12T17:00:55.500Z,205.73
2022-11-12T17:02:16.233Z,79.82
2022-11-12T17:03:36.973Z,107.45
2022-11-12T17:04:57.687Z,50.00
2022-11-12T17:06:19.344Z,31.98
2022-11-12T17:07:40.230Z,53.47
2022-11-12T17:09:01.062Z,224.52
2022-11-12T17:10:24.162Z,256.23
2022-11-12T17:11:44.855Z,118.78
2022-11-12T17:13:05.631Z,124.90
2022-11-12T17:14:28.492Z,209.52
2022-11-12T17:15:56.289Z,66.55
2022-11-12T17:17:17.199Z,43.67
2022-11-12T17:18:38.532Z,118.93
2022-11-12T17:19:59.463Z,203.93
2022-11-12T17:21:20.415Z,222.73
2022-11-12T17:22:41.575Z,106.53
2022-11-12T17:24:02.579Z,387.70
2022-11-12T17:25:23.234Z,240.93
2022-11-12T17:26:44.717Z,137.20
2022-11-12T17:28:05.322Z,85.43
2022-11-12T17:29:26.471Z,52.38
2022-11-12T17:30:47.378Z,299.67
2022-11-12T17:32:08.145Z,261.85
2022-11-12T17:33:29.241Z,269.75
2022-11-12T17:34:50.079Z,229.73
2022-11-12T17:36:13.813Z,270.95
2022-11-12T17:37:34.493Z,327.98
2022-11-12T17:38:56.688Z,198.45
2022-11-12T17:40:17.314Z,244.50
2022-11-12T17:41:38.226Z,194.02
2022-11-12T17:42:59.222Z,147.75
2022-11-12T17:44:20.207Z,273.25
2022-11-12T17:45:49.730Z,237.65
2022-11-12T17:47:10.802Z,282.33
2022-11-12T17:48:33.017Z,229.10
2022-11-12T17:49:53.479Z,474.67
2022-11-12T17:51:17.215Z,84.80
2022-11-12T17:52:37.969Z,76.40
2022-11-12T17:53:58.635Z,99.15
2022-11-12T17:55:19.382Z,28.25
2022-11-12T17:56:39.917Z,253.38
2022-11-12T17:58:00.344Z,141.80
2022-11-12T17:59:20.989Z,224.63
2022-11-12T18:00:41.675Z,83.63
2022-11-12T18:02:02.521Z,204.02
2022-11-12T18:03:23.325Z,224.45
2022-11-12T18:04:43.948Z,314.45
2022-11-12T18:06:06.607Z,243.30
2022-11-12T18:07:27.438Z,104.93
2022-11-12T18:08:52.592Z,64.10
2022-11-12T18:10:18.378Z,71.60
2022-11-12T18:11:54.068Z,39.30